createdAt,value
2023-02-20T00:00:35.325Z,8.27
2023-02-20T00:03:03.071Z,10.90
2023-02-20T00:05:30.582Z,7.83
2023-02-20T00:07:58.037Z,11.80
2023-02-20T00:10:25.813Z,8.27
2023-02-20T00:12:53.735Z,13.60
2023-02-20T00:15:23.095Z,8.13
2023-02-20T00:17:50.642Z,11.67
2023-02-20T00:20:20.146Z,8.47
2023-02-20T00:22:47.722Z,8.00
2023-02-20T00:25:16.524Z,9.97
2023-02-20T00:27:44.227Z,9.87
2023-02-20T00:30:15.820Z,7.20
2023-02-20T00:32:44.713Z,9.13
2023-02-20T00:35:12.579Z,6.03
2023-02-20T00:37:40.251Z,5.10
2023-02-20T00:40:09.038Z,8.03
2023-02-20T00:42:36.559Z,8.50
2023-02-20T00:45:06.830Z,7.90
2023-02-20T00:47:34.577Z,5.87
2023-02-20T00:50:03.552Z,6.67
2023-02-20T00:52:31.035Z,6.87
2023-02-20T00:54:58.842Z,11.07
2023-02-20T00:57:26.286Z,5.07
2023-02-20T00:59:55.335Z,7.90
2023-02-20T01:02:22.924Z,8.43
2023-02-20T01:04:50.470Z,6.60
2023-02-20T01:07:19.292Z,7.00
2023-02-20T01:09:46.768Z,7.30
2023-02-20T01:12:16.460Z,6.47
2023-02-20T01:14:43.966Z,5.90
2023-02-20T01:17:13.894Z,8.90
2023-02-20T01:19:42.693Z,4.03
2023-02-20T01:22:10.211Z,4.57
2023-02-20T01:24:39.006Z,5.60
2023-02-20T01:27:07.246Z,6.20
2023-02-20T01:29:34.729Z,5.40
2023-02-20T01:32:02.531Z,8.10
2023-02-20T01:34:30.152Z,6.30
2023-02-20T01:36:57.868Z,8.63
2023-02-20T01:39:29.040Z,5.20
2023-02-20T01:42:01.227Z,6.57
2023-02-20T01:44:30.814Z,7.10
2023-02-20T01:47:00.489Z,6.40
2023-02-20T01:49:32.704Z,12.00
2023-02-20T01:52:06.639Z,6.53
2023-02-20T01:54:35.522Z,6.33
2023-02-20T01:57:07.655Z,7.60
2023-02-20T01:59:38.342Z,6.20
2023-02-20T02:02:07.768Z,5.40
2023-02-20T02:04:37.814Z,7.87
2023-02-20T02:07:05.955Z,8.40
2023-02-20T02:09:40.728Z,5.93
2023-02-20T02:12:09.886Z,6.00
2023-02-20T02:14:37.599Z,4.93
2023-02-20T02:17:29.252Z,5.13
2023-02-20T02:20:30.410Z,4.03
2023-02-20T02:23:36.912Z,9.13
2023-02-20T02:26:24.229Z,5.57
2023-02-20T02:29:16.718Z,4.40
2023-02-20T02:32:19.012Z,5.80
2023-02-20T02:35:09.523Z,8.17
2023-02-20T02:37:48.765Z,5.10
2023-02-20T02:40:25.493Z,7.17
2023-02-20T02:43:02.023Z,6.23
2023-02-20T02:45:35.407Z,5.90
2023-02-20T02:48:12.625Z,9.23
2023-02-20T02:50:44.480Z,7.53
2023-02-20T02:53:15.424Z,5.67
2023-02-20T02:55:42.958Z,7.93
2023-02-20T02:58:12.461Z,7.30
2023-02-20T03:00:44.396Z,7.43
2023-02-20T03:03:16.922Z,6.50
2023-02-20T03:05:50.258Z,9.13
2023-02-20T03:08:31.216Z,8.40
2023-02-20T03:11:04.038Z,7.90
2023-02-20T03:13:57.700Z,9.63
2023-02-20T03:16:31.275Z,9.67
2023-02-20T03:19:02.590Z,8.23
2023-02-20T03:21:33.299Z,7.43
2023-02-20T03:24:05.067Z,9.77
2023-02-20T03:26:35.475Z,7.20
2023-02-20T03:29:10.341Z,11.80
2023-02-20T03:31:43.221Z,7.97
2023-02-20T03:34:33.526Z,8.90
2023-02-20T03:37:23.396Z,6.63
2023-02-20T03:40:14.062Z,12.67
2023-02-20T03:43:03.429Z,6.20
2023-02-20T03:45:39.960Z,8.20
2023-02-20T03:48:13.064Z,9.40
2023-02-20T03:50:58.356Z,7.97
2023-02-20T03:53:30.520Z,6.17
2023-02-20T03:56:04.286Z,9.43
2023-02-20T03:58:38.174Z,8.90
2023-02-20T04:01:09.476Z,11.80
2023-02-20T04:03:41.290Z,5.57
2023-02-20T04:06:12.332Z,7.83
2023-02-20T04:08:45.465Z,8.93
2023-02-20T04:11:19.808Z,10.50
2023-02-20T04:13:49.423Z,12.63
2023-02-20T04:16:17.384Z,12.67
2023-02-20T04:18:45.724Z,13.87
2023-02-20T04:21:21.630Z,13.40
2023-02-20T04:23:55.788Z,14.33
2023-02-20T04:26:24.927Z,13.33
2023-02-20T04:28:53.175Z,14.40
2023-02-20T04:31:22.832Z,11.70
2023-02-20T04:33:51.526Z,19.43
2023-02-20T04:36:25.118Z,16.33
2023-02-20T04:38:54.968Z,14.07
2023-02-20T04:41:27.711Z,15.93
2023-02-20T04:44:15.923Z,17.63
2023-02-20T04:46:45.138Z,14.97
2023-02-20T04:49:13.084Z,15.80
2023-02-20T04:51:41.939Z,13.17
2023-02-20T04:54:09.891Z,19.27
2023-02-20T04:56:38.945Z,16.33
2023-02-20T04:59:06.980Z,10.93
2023-02-20T05:01:34.771Z,12.00
2023-02-20T05:04:02.287Z,13.03
2023-02-20T05:06:29.760Z,13.50
2023-02-20T05:08:57.245Z,15.13
2023-02-20T05:11:24.729Z,17.60
2023-02-20T05:13:53.607Z,21.13
2023-02-20T05:16:21.067Z,15.93
2023-02-20T05:18:48.527Z,11.20
2023-02-20T05:21:33.894Z,12.17
2023-02-20T05:24:01.371Z,14.43
2023-02-20T05:26:29.204Z,13.00
2023-02-20T05:28:58.014Z,9.70
2023-02-20T05:31:25.785Z,10.07
2023-02-20T05:33:53.307Z,13.67
2023-02-20T05:36:20.854Z,13.30
2023-02-20T05:38:49.376Z,15.60
2023-02-20T05:41:17.304Z,12.80
2023-02-20T05:43:46.260Z,12.00
2023-02-20T05:46:16.423Z,16.90
2023-02-20T05:48:45.085Z,11.20
2023-02-20T05:51:24.201Z,10.90
2023-02-20T05:53:52.087Z,13.50
2023-02-20T05:56:20.216Z,16.90
2023-02-20T05:58:48.619Z,10.27
2023-02-20T06:01:25.247Z,10.20
2023-02-20T06:03:53.332Z,12.10
2023-02-20T06:06:21.715Z,11.87
2023-02-20T06:08:49.619Z,13.90
2023-02-20T06:11:17.549Z,20.07
2023-02-20T06:13:46.481Z,15.13
2023-02-20T06:16:16.301Z,13.63
2023-02-20T06:19:26.463Z,15.30
2023-02-20T06:21:55.453Z,12.60
2023-02-20T06:24:23.293Z,8.50
2023-02-20T06:26:52.075Z,11.00
2023-02-20T06:29:20.571Z,7.40
2023-02-20T06:31:48.687Z,10.70
2023-02-20T06:34:17.078Z,9.20
2023-02-20T06:36:46.458Z,15.50
2023-02-20T06:39:15.437Z,9.50
2023-02-20T06:41:43.319Z,5.73
2023-02-20T06:44:10.857Z,15.63
2023-02-20T06:46:39.031Z,8.43
2023-02-20T06:49:06.648Z,8.10
2023-02-20T06:51:35.328Z,11.70
2023-02-20T06:54:04.967Z,8.23
2023-02-20T06:56:34.782Z,6.90
2023-02-20T06:59:03.016Z,9.43
2023-02-20T07:01:32.404Z,9.53
2023-02-20T07:04:00.837Z,11.20
2023-02-20T07:06:29.635Z,12.97
2023-02-20T07:08:57.072Z,17.63
2023-02-20T07:11:26.096Z,11.33
2023-02-20T07:13:53.667Z,8.43
2023-02-20T07:16:21.204Z,14.40
2023-02-20T07:18:48.679Z,12.40
2023-02-20T07:21:16.596Z,10.40
2023-02-20T07:23:45.131Z,14.60
2023-02-20T07:26:18.947Z,9.70
2023-02-20T07:28:47.985Z,10.63
2023-02-20T07:31:15.768Z,11.43
2023-02-20T07:33:44.090Z,11.97
2023-02-20T07:36:12.184Z,16.07
2023-02-20T07:38:40.270Z,15.87
2023-02-20T07:41:08.803Z,10.10
2023-02-20T07:43:36.484Z,15.70
2023-02-20T07:46:05.571Z,14.13
2023-02-20T07:48:34.520Z,12.17
2023-02-20T07:51:01.987Z,15.70
2023-02-20T07:53:29.478Z,17.87
2023-02-20T07:55:56.943Z,14.53
2023-02-20T07:58:25.084Z,19.80
2023-02-20T08:00:54.000Z,20.60
2023-02-20T08:03:22.846Z,16.20
2023-02-20T08:05:50.391Z,18.33
2023-02-20T08:08:18.456Z,22.00
2023-02-20T08:10:46.018Z,18.73
2023-02-20T08:13:13.621Z,23.00
2023-02-20T08:15:41.771Z,20.37
2023-02-20T08:18:22.082Z,18.77
2023-02-20T08:20:52.844Z,17.67
2023-02-20T08:23:21.863Z,19.27
2023-02-20T08:25:49.473Z,19.50
2023-02-20T08:28:17.340Z,27.03
2023-02-20T08:30:44.829Z,15.53
2023-02-20T08:33:12.488Z,21.50
2023-02-20T08:35:40.156Z,24.97
2023-02-20T08:38:24.286Z,21.73
2023-02-20T08:40:51.814Z,26.27
2023-02-20T08:43:19.383Z,23.50
2023-02-20T08:45:47.202Z,22.53
2023-02-20T08:48:14.736Z,19.20
2023-02-20T08:50:42.304Z,19.43
2023-02-20T08:53:11.178Z,26.03
2023-02-20T08:55:38.681Z,26.53
2023-02-20T08:58:06.269Z,20.30
2023-02-20T09:00:34.539Z,18.13
2023-02-20T09:03:02.484Z,30.20
2023-02-20T09:05:29.987Z,22.83
2023-02-20T09:07:57.493Z,26.53
2023-02-20T09:10:26.391Z,21.53
2023-02-20T09:12:54.174Z,18.07
2023-02-20T09:15:21.669Z,20.07
2023-02-20T09:17:50.632Z,22.63
2023-02-20T09:20:20.520Z,22.67
2023-02-20T09:22:48.074Z,18.67
2023-02-20T09:25:16.130Z,22.83
2023-02-20T09:27:45.009Z,19.90
2023-02-20T09:30:17.248Z,21.77
2023-02-20T09:32:45.959Z,19.10
2023-02-20T09:35:17.139Z,19.40
2023-02-20T09:37:44.962Z,21.13
2023-02-20T09:40:13.343Z,13.90
2023-02-20T09:42:51.344Z,17.87
2023-02-20T09:45:21.983Z,23.27
2023-02-20T09:48:04.505Z,18.37
2023-02-20T09:50:36.989Z,18.57
2023-02-20T09:53:09.457Z,22.03
2023-02-20T09:55:41.483Z,15.53
2023-02-20T09:58:19.544Z,20.60
2023-02-20T10:00:48.183Z,22.33
2023-02-20T10:03:23.664Z,17.67
2023-02-20T10:05:51.208Z,20.20
2023-02-20T10:08:21.358Z,20.57
2023-02-20T10:10:51.631Z,17.37
2023-02-20T10:13:50.186Z,16.60
2023-02-20T10:16:29.040Z,20.57
2023-02-20T10:19:07.142Z,20.90
2023-02-20T10:21:47.883Z,18.67
2023-02-20T10:24:29.123Z,17.00
2023-02-20T10:27:14.600Z,22.00
2023-02-20T10:29:46.703Z,20.70
2023-02-20T10:32:22.319Z,18.27
2023-02-20T10:34:57.428Z,18.47
2023-02-20T10:37:38.646Z,21.63
2023-02-20T10:40:21.790Z,18.60
2023-02-20T10:42:56.230Z,20.20
2023-02-20T10:45:32.491Z,28.47
2023-02-20T10:48:07.089Z,19.33
2023-02-20T10:50:40.195Z,27.93
2023-02-20T10:53:17.634Z,17.40
2023-02-20T10:55:50.338Z,17.73
2023-02-20T10:58:22.940Z,19.90
2023-02-20T11:00:56.466Z,21.00
2023-02-20T11:03:28.959Z,21.70
2023-02-20T11:06:02.107Z,27.40
2023-02-20T11:08:29.662Z,19.20
2023-02-20T11:11:01.232Z,20.60
2023-02-20T11:13:28.706Z,21.73
2023-02-20T11:15:58.957Z,19.73
2023-02-20T11:18:32.743Z,24.63
2023-02-20T11:21:00.328Z,22.53
2023-02-20T11:23:37.328Z,24.80
2023-02-20T11:26:18.900Z,17.40
2023-02-20T11:28:46.723Z,27.50
2023-02-20T11:31:17.137Z,21.10
2023-02-20T11:33:49.178Z,23.43
2023-02-20T11:36:21.097Z,20.90
2023-02-20T11:38:50.136Z,22.70
2023-02-20T11:41:30.810Z,20.73
2023-02-20T11:44:18.195Z,21.37
2023-02-20T11:46:47.750Z,23.50
2023-02-20T11:49:26.305Z,24.23
2023-02-20T11:52:02.039Z,21.00
2023-02-20T11:54:30.003Z,24.30
2023-02-20T11:57:01.381Z,25.13
2023-02-20T11:59:33.174Z,20.33
2023-02-20T12:02:26.216Z,27.27
2023-02-20T12:05:10.613Z,24.63
2023-02-20T12:07:43.117Z,22.10
2023-02-20T12:10:26.602Z,28.97
2023-02-20T12:12:55.287Z,22.03
2023-02-20T12:15:26.043Z,20.93
2023-02-20T12:18:19.398Z,26.03
2023-02-20T12:20:52.756Z,28.43
2023-02-20T12:23:28.366Z,24.67
2023-02-20T12:26:08.486Z,31.17
2023-02-20T12:28:44.142Z,23.23
2023-02-20T12:31:28.610Z,25.47
2023-02-20T12:34:07.949Z,24.73
2023-02-20T12:36:40.927Z,19.57
2023-02-20T12:39:25.738Z,22.13
2023-02-20T12:42:10.728Z,26.17
2023-02-20T12:44:55.996Z,27.57
2023-02-20T12:47:30.771Z,17.80
2023-02-20T12:50:16.433Z,22.33
2023-02-20T12:53:10.220Z,22.17
2023-02-20T12:55:47.256Z,24.70
2023-02-20T12:58:21.897Z,28.27
2023-02-20T13:00:54.022Z,26.50
2023-02-20T13:03:30.205Z,21.33
2023-02-20T13:05:59.200Z,23.00
2023-02-20T13:08:33.903Z,20.77
2023-02-20T13:11:05.053Z,18.23
2023-02-20T13:13:39.975Z,21.17
2023-02-20T13:16:14.566Z,18.30
2023-02-20T13:18:50.304Z,18.03
2023-02-20T13:21:23.851Z,20.67
2023-02-20T13:23:53.152Z,17.80
2023-02-20T13:26:46.760Z,20.80
2023-02-20T13:29:16.718Z,18.67
2023-02-20T13:31:51.328Z,20.70
2023-02-20T13:34:31.582Z,15.83
2023-02-20T13:37:00.764Z,18.33
2023-02-20T13:39:45.944Z,20.30
2023-02-20T13:42:43.312Z,27.30
2023-02-20T13:45:39.217Z,16.80
2023-02-20T13:48:21.399Z,22.03
2023-02-20T13:50:49.304Z,23.20
2023-02-20T13:53:18.275Z,17.00
2023-02-20T13:55:45.801Z,17.50
2023-02-20T13:58:15.650Z,17.57
2023-02-20T14:00:48.742Z,16.97
2023-02-20T14:03:22.622Z,14.00
2023-02-20T14:06:03.324Z,16.40
2023-02-20T14:08:32.410Z,18.90
2023-02-20T14:11:06.475Z,21.57
2023-02-20T14:13:40.344Z,15.07
2023-02-20T14:16:27.972Z,19.83
2023-02-20T14:18:59.435Z,17.30
2023-02-20T14:21:27.816Z,22.60
2023-02-20T14:23:57.382Z,16.20
2023-02-20T14:26:27.215Z,20.37
2023-02-20T14:28:56.612Z,19.90
2023-02-20T14:31:26.102Z,13.57
2023-02-20T14:33:57.277Z,23.17
2023-02-20T14:36:37.958Z,26.87
2023-02-20T14:39:22.155Z,14.00
2023-02-20T14:41:55.114Z,13.40
2023-02-20T14:44:24.111Z,13.13
2023-02-20T14:46:54.613Z,14.53
2023-02-20T14:49:27.525Z,15.30
2023-02-20T14:52:06.439Z,10.67
2023-02-20T14:54:35.456Z,12.27
2023-02-20T14:57:04.858Z,6.50
2023-02-20T14:59:34.175Z,14.00
2023-02-20T15:02:04.509Z,15.50
2023-02-20T15:04:32.199Z,11.73
2023-02-20T15:07:08.962Z,11.23
2023-02-20T15:09:40.191Z,11.77
2023-02-20T15:12:09.506Z,13.53
2023-02-20T15:14:43.003Z,11.17
2023-02-20T15:17:22.099Z,11.53
2023-02-20T15:19:50.826Z,13.63
2023-02-20T15:22:30.947Z,14.30
2023-02-20T15:25:27.685Z,11.60
2023-02-20T15:28:10.775Z,22.63
2023-02-20T15:31:03.830Z,13.53
2023-02-20T15:33:33.996Z,22.50
2023-02-20T15:36:02.664Z,13.73
2023-02-20T15:38:32.927Z,14.30
2023-02-20T15:41:03.891Z,12.73
2023-02-20T15:43:51.045Z,13.40
2023-02-20T15:46:19.930Z,15.00
2023-02-20T15:48:47.580Z,9.93
2023-02-20T15:51:21.394Z,13.87
2023-02-20T15:53:49.538Z,15.53
2023-02-20T15:56:19.794Z,15.57
2023-02-20T15:58:49.607Z,14.90
2023-02-20T16:01:17.291Z,13.63
2023-02-20T16:03:52.399Z,10.57
2023-02-20T16:06:26.000Z,10.70
2023-02-20T16:08:54.216Z,11.20
2023-02-20T16:11:26.418Z,10.13
2023-02-20T16:13:56.996Z,13.13
2023-02-20T16:16:31.831Z,14.57
2023-02-20T16:18:59.723Z,14.83
2023-02-20T16:21:27.525Z,14.33
2023-02-20T16:23:55.603Z,10.20
2023-02-20T16:26:28.419Z,8.07
2023-02-20T16:28:59.355Z,14.37
2023-02-20T16:32:12.732Z,11.60
2023-02-20T16:34:40.454Z,14.10
2023-02-20T16:37:13.892Z,13.40
2023-02-20T16:39:45.890Z,10.40
2023-02-20T16:42:28.204Z,11.80
2023-02-20T16:45:00.088Z,15.20
2023-02-20T16:47:31.115Z,11.77
2023-02-20T16:50:01.422Z,9.87
2023-02-20T16:52:30.841Z,12.33
2023-02-20T16:55:18.673Z,11.67
2023-02-20T16:57:47.876Z,9.10
2023-02-20T17:00:18.229Z,10.13
2023-02-20T17:02:46.063Z,10.47
2023-02-20T17:05:15.100Z,9.77
2023-02-20T17:07:43.092Z,8.50
2023-02-20T17:10:10.859Z,8.27
2023-02-20T17:12:38.658Z,8.27
2023-02-20T17:15:11.192Z,10.47
2023-02-20T17:17:39.526Z,8.67
2023-02-20T17:20:08.400Z,10.10
2023-02-20T17:22:36.650Z,10.10
2023-02-20T17:25:04.411Z,12.13
2023-02-20T17:27:32.345Z,12.37
2023-02-20T17:30:00.300Z,7.70
2023-02-20T17:32:30.757Z,8.43
2023-02-20T17:34:59.228Z,6.50
2023-02-20T17:37:30.561Z,9.60
2023-02-20T17:39:58.551Z,7.40
2023-02-20T17:42:26.241Z,10.77
2023-02-20T17:44:54.931Z,8.80
2023-02-20T17:47:23.809Z,18.47
2023-02-20T17:49:54.519Z,10.90
2023-02-20T17:52:23.184Z,6.93
2023-02-20T17:54:52.411Z,9.47
2023-02-20T17:57:20.771Z,9.20
2023-02-20T17:59:49.345Z,9.27
2023-02-20T18:02:17.897Z,8.73
2023-02-20T18:04:45.807Z,10.87
2023-02-20T18:07:17.635Z,8.97
2023-02-20T18:09:45.650Z,9.77
2023-02-20T18:12:13.195Z,11.77
2023-02-20T18:14:40.797Z,11.70
2023-02-20T18:17:08.895Z,11.13
2023-02-20T18:19:36.656Z,9.63
2023-02-20T18:22:08.598Z,12.53
2023-02-20T18:24:37.726Z,9.83
2023-02-20T18:27:07.465Z,10.23
2023-02-20T18:29:40.441Z,10.47
2023-02-20T18:32:09.281Z,10.37
2023-02-20T18:34:37.141Z,10.53
2023-02-20T18:37:05.217Z,14.67
2023-02-20T18:39:33.584Z,13.00
2023-02-20T18:42:03.127Z,15.00
2023-02-20T18:44:31.454Z,10.67
2023-02-20T18:47:05.719Z,13.40
2023-02-20T18:49:36.129Z,17.43
2023-02-20T18:52:04.908Z,11.83
2023-02-20T18:54:33.588Z,14.07
2023-02-20T18:57:04.163Z,12.53
2023-02-20T18:59:32.058Z,12.47
2023-02-20T19:02:03.631Z,12.37
2023-02-20T19:04:33.283Z,14.20
2023-02-20T19:07:03.498Z,16.60
2023-02-20T19:09:34.284Z,9.60
2023-02-20T19:12:08.153Z,16.30
2023-02-20T19:14:38.575Z,15.67
2023-02-20T19:17:07.913Z,12.13
2023-02-20T19:19:41.208Z,17.90
2023-02-20T19:22:09.642Z,11.83
2023-02-20T19:24:39.499Z,12.60
2023-02-20T19:27:09.479Z,11.33
2023-02-20T19:29:39.462Z,19.40
2023-02-20T19:32:09.588Z,11.47
2023-02-20T19:34:37.274Z,10.23
2023-02-20T19:37:05.154Z,14.57
2023-02-20T19:39:32.848Z,15.10
2023-02-20T19:42:00.612Z,12.23
2023-02-20T19:44:29.800Z,15.03
2023-02-20T19:46:57.779Z,17.20
2023-02-20T19:49:26.067Z,19.20
2023-02-20T19:51:55.262Z,16.30
2023-02-20T19:54:26.998Z,12.87
2023-02-20T19:56:56.383Z,18.10
2023-02-20T19:59:24.195Z,15.03
2023-02-20T20:01:55.504Z,16.03
2023-02-20T20:04:25.265Z,17.50
2023-02-20T20:06:53.830Z,15.87
2023-02-20T20:09:35.577Z,19.30
2023-02-20T20:12:05.521Z,14.07
2023-02-20T20:14:33.192Z,16.20
2023-02-20T20:17:03.875Z,19.07
2023-02-20T20:19:31.759Z,20.47
2023-02-20T20:21:59.420Z,19.37
2023-02-20T20:24:29.682Z,16.90
2023-02-20T20:26:59.224Z,20.03
2023-02-20T20:29:26.938Z,19.73
2023-02-20T20:31:54.504Z,19.60
2023-02-20T20:34:25.164Z,20.90
2023-02-20T20:36:52.836Z,19.43
2023-02-20T20:39:20.421Z,20.93
2023-02-20T20:41:48.003Z,20.57
2023-02-20T20:44:15.942Z,17.47
2023-02-20T20:46:43.582Z,21.57
2023-02-20T20:49:12.379Z,23.97
2023-02-20T20:51:49.794Z,20.77
2023-02-20T20:54:17.775Z,18.50
2023-02-20T20:56:47.081Z,18.53
2023-02-20T20:59:15.517Z,20.63
2023-02-20T21:01:43.646Z,21.87
2023-02-20T21:04:12.217Z,17.80
2023-02-20T21:06:48.422Z,17.67
2023-02-20T21:09:16.385Z,20.37
2023-02-20T21:11:44.908Z,18.80
2023-02-20T21:14:13.373Z,19.97
2023-02-20T21:16:41.127Z,18.57
2023-02-20T21:19:08.938Z,22.40
2023-02-20T21:21:36.796Z,19.33
2023-02-20T21:24:06.300Z,29.43
2023-02-20T21:26:37.863Z,21.00
2023-02-20T21:29:05.881Z,21.87
2023-02-20T21:31:33.825Z,23.80
2023-02-20T21:34:03.007Z,17.63
2023-02-20T21:36:32.025Z,19.07
2023-02-20T21:39:00.103Z,21.50
2023-02-20T21:41:55.598Z,24.40
2023-02-20T21:44:27.339Z,22.00
2023-02-20T21:46:57.762Z,18.37
2023-02-20T21:49:25.688Z,24.53
2023-02-20T21:51:53.560Z,26.60
2023-02-20T21:54:22.849Z,22.77
2023-02-20T21:56:51.970Z,25.63
2023-02-20T21:59:19.111Z,21.70
2023-02-20T22:01:45.689Z,17.43
2023-02-20T22:04:13.386Z,28.90
2023-02-20T22:06:40.250Z,24.87
2023-02-20T22:09:27.323Z,20.77
2023-02-20T22:12:13.618Z,22.10
2023-02-20T22:14:58.782Z,23.30
2023-02-20T22:17:43.788Z,19.50
2023-02-20T22:20:30.212Z,17.73
2023-02-20T22:23:15.718Z,23.60
2023-02-20T22:26:01.041Z,24.10
2023-02-20T22:28:47.691Z,24.57
2023-02-20T22:31:33.149Z,24.23
2023-02-20T22:34:18.550Z,26.73
2023-02-20T22:37:06.708Z,24.93
2023-02-20T22:39:51.744Z,27.87
2023-02-20T22:42:37.381Z,24.10
2023-02-20T22:45:24.763Z,23.53
2023-02-20T22:48:10.063Z,25.17
2023-02-20T22:50:55.428Z,24.53
2023-02-20T22:53:41.095Z,26.23
2023-02-20T22:56:26.690Z,26.20
2023-02-20T22:59:12.178Z,26.10
2023-02-20T23:01:58.588Z,29.73
2023-02-20T23:04:44.423Z,26.70
2023-02-20T23:07:29.977Z,26.67
2023-02-20T23:10:15.256Z,30.57
2023-02-20T23:13:00.260Z,30.80
2023-02-20T23:15:45.448Z,24.50
2023-02-20T23:18:32.519Z,25.53
2023-02-20T23:21:17.733Z,23.07
2023-02-20T23:24:02.847Z,24.07
2023-02-20T23:26:48.161Z,24.37
2023-02-20T23:29:32.860Z,24.80
2023-02-20T23:32:18.558Z,22.10
2023-02-20T23:35:05.186Z,27.17
2023-02-20T23:37:50.251Z,29.23
2023-02-20T23:40:37.172Z,27.27
2023-02-20T23:43:22.659Z,31.70
2023-02-20T23:46:07.960Z,31.40
2023-02-20T23:48:53.348Z,25.00
2023-02-20T23:51:39.776Z,31.20
2023-02-20T23:54:24.907Z,34.50
2023-02-20T23:57:10.087Z,35.07
2023-02-20T23:59:55.323Z,31.50
